createdAt,value
2023-04-04T00:01:34.849Z,36.98
2023-04-04T00:04:40.998Z,40.75
2023-04-04T00:07:46.703Z,35.70
2023-04-04T00:10:52.519Z,37.13
2023-04-04T00:13:59.313Z,34.90
2023-04-04T00:17:05.716Z,43.68
2023-04-04T00:20:11.749Z,35.35
2023-04-04T00:23:17.833Z,38.75
2023-04-04T00:26:25.832Z,43.38
2023-04-04T00:29:31.437Z,38.33
2023-04-04T00:32:37.489Z,38.73
2023-04-04T00:35:42.335Z,37.48
2023-04-04T00:38:48.343Z,38.58
2023-04-04T00:41:53.649Z,41.02
2023-04-04T00:44:59.526Z,43.25
2023-04-04T00:48:04.295Z,43.75
2023-04-04T00:51:10.227Z,39.78
2023-04-04T00:54:16.012Z,36.90
2023-04-04T00:57:21.962Z,37.70
2023-04-04T01:00:29.823Z,38.63
2023-04-04T01:03:36.466Z,40.40
2023-04-04T01:06:42.244Z,42.53
2023-04-04T01:09:48.853Z,37.83
2023-04-04T01:12:55.441Z,44.30
2023-04-04T01:16:01.092Z,44.25
2023-04-04T01:19:07.496Z,41.73
2023-04-04T01:22:13.942Z,46.92
2023-04-04T01:25:22.309Z,49.20
2023-04-04T01:28:29.484Z,47.90
2023-04-04T01:31:48.210Z,45.90
2023-04-04T01:35:15.206Z,46.68
2023-04-04T01:38:35.131Z,46.65
2023-04-04T01:41:42.007Z,41.53
2023-04-04T01:44:47.109Z,52.38
2023-04-04T01:47:56.509Z,40.88
2023-04-04T01:51:04.269Z,42.83
2023-04-04T01:54:10.186Z,48.90
2023-04-04T01:57:15.886Z,43.73
2023-04-04T02:00:23.655Z,38.75
2023-04-04T02:03:29.710Z,42.83
2023-04-04T02:06:36.670Z,39.13
2023-04-04T02:09:42.242Z,40.80
2023-04-04T02:12:48.160Z,37.28
2023-04-04T02:15:56.162Z,37.93
2023-04-04T02:19:02.337Z,42.00
2023-04-04T02:22:07.937Z,46.73
2023-04-04T02:25:14.999Z,36.88
2023-04-04T02:28:21.521Z,45.03
2023-04-04T02:31:27.254Z,38.90
2023-04-04T02:34:33.364Z,44.53
2023-04-04T02:37:39.783Z,34.65
2023-04-04T02:40:49.497Z,38.42
2023-04-04T02:43:55.126Z,34.53
2023-04-04T02:47:00.866Z,44.67
2023-04-04T02:50:05.746Z,47.55
2023-04-04T02:53:18.847Z,68.42
2023-04-04T02:56:26.668Z,55.73
2023-04-04T02:59:32.907Z,63.75
2023-04-04T03:02:39.149Z,57.45
2023-04-04T03:05:46.026Z,34.53
2023-04-04T03:08:53.398Z,33.30
2023-04-04T03:11:59.274Z,23.80
2023-04-04T03:15:05.482Z,28.98
2023-04-04T03:18:10.953Z,21.77
2023-04-04T03:21:18.291Z,55.40
2023-04-04T03:24:24.264Z,16.32
2023-04-04T03:27:30.520Z,46.10
2023-04-04T03:30:36.909Z,36.53
2023-04-04T03:33:46.018Z,102.50
2023-04-04T03:36:53.664Z,62.80
2023-04-04T03:39:59.341Z,108.57
2023-04-04T03:43:05.909Z,126.22
2023-04-04T03:46:20.639Z,158.68
2023-04-04T03:49:26.519Z,128.30
2023-04-04T03:52:33.531Z,78.00
2023-04-04T03:55:39.112Z,92.57
2023-04-04T03:58:44.710Z,162.12
2023-04-04T04:01:54.436Z,177.47
2023-04-04T04:05:01.533Z,115.55
2023-04-04T04:08:08.930Z,90.03
2023-04-04T04:11:19.793Z,139.92
2023-04-04T04:14:24.434Z,217.80
2023-04-04T04:17:31.774Z,153.35
2023-04-04T04:20:39.330Z,120.30
2023-04-04T04:23:45.787Z,151.57
2023-04-04T04:26:51.946Z,106.35
2023-04-04T04:29:58.370Z,250.78
2023-04-04T04:33:06.097Z,76.85
2023-04-04T04:36:22.005Z,115.67
2023-04-04T04:39:31.686Z,58.28
2023-04-04T04:42:40.348Z,62.65
2023-04-04T04:45:48.339Z,51.50
2023-04-04T04:48:55.270Z,44.85
2023-04-04T04:52:04.014Z,58.13
2023-04-04T04:55:11.958Z,36.83
2023-04-04T04:58:24.683Z,86.80
2023-04-04T05:01:31.908Z,92.70
2023-04-04T05:04:38.307Z,79.37
2023-04-04T05:07:44.847Z,56.68
2023-04-04T05:10:52.189Z,47.25
2023-04-04T05:13:59.476Z,33.18
2023-04-04T05:17:08.100Z,60.48
2023-04-04T05:20:15.867Z,40.30
2023-04-04T05:23:22.579Z,27.05
2023-04-04T05:26:28.203Z,22.60
2023-04-04T05:29:38.893Z,31.82
2023-04-04T05:32:45.677Z,24.25
2023-04-04T05:35:53.480Z,23.15
2023-04-04T05:39:00.745Z,20.70
2023-04-04T05:42:10.043Z,18.90
2023-04-04T05:48:27.636Z,21.15
2023-04-04T05:51:33.285Z,25.02
2023-04-04T05:54:41.881Z,25.65
2023-04-04T05:57:49.061Z,27.52
2023-04-04T06:00:56.204Z,23.07
2023-04-04T06:04:04.694Z,23.30
2023-04-04T06:07:15.920Z,21.93
2023-04-04T06:10:24.150Z,40.35
2023-04-04T06:13:30.876Z,33.63
2023-04-04T06:16:39.033Z,37.50
2023-04-04T06:19:45.678Z,32.38
2023-04-04T06:22:55.570Z,34.13
2023-04-04T06:26:02.455Z,33.75
2023-04-04T06:29:04.957Z,33.30
2023-04-04T06:32:12.597Z,31.10
2023-04-04T06:35:20.746Z,28.42
2023-04-04T06:38:27.873Z,31.87
2023-04-04T06:41:36.140Z,32.45
2023-04-04T06:44:41.097Z,28.52
2023-04-04T06:47:50.349Z,29.48
2023-04-04T06:50:56.254Z,32.73
2023-04-04T06:54:04.319Z,29.20
2023-04-04T06:57:10.160Z,22.75
2023-04-04T07:00:17.800Z,28.15
2023-04-04T07:03:24.184Z,32.23
2023-04-04T07:06:31.173Z,28.42
2023-04-04T07:09:37.027Z,24.35
2023-04-04T07:12:41.777Z,30.30
2023-04-04T07:15:47.820Z,26.15
2023-04-04T07:18:56.741Z,28.07
2023-04-04T07:22:02.427Z,27.85
2023-04-04T07:25:08.137Z,30.37
2023-04-04T07:28:13.600Z,26.50
2023-04-04T07:31:21.986Z,25.60
2023-04-04T07:34:28.396Z,24.27
2023-04-04T07:37:34.135Z,27.20
2023-04-04T07:40:40.011Z,26.10
2023-04-04T07:43:46.273Z,22.35
2023-04-04T07:47:06.357Z,25.52
2023-04-04T07:50:00.498Z,26.48
2023-04-04T07:53:07.384Z,24.37
2023-04-04T07:56:14.094Z,19.82
2023-04-04T07:59:20.090Z,28.67
2023-04-04T08:02:27.204Z,21.60
2023-04-04T08:05:33.688Z,31.68
2023-04-04T08:08:39.436Z,31.95
2023-04-04T08:11:49.038Z,31.48
2023-04-04T08:15:06.926Z,30.02
2023-04-04T08:18:14.643Z,27.58
2023-04-04T08:21:20.114Z,39.58
2023-04-04T08:24:28.251Z,34.15
2023-04-04T08:27:52.855Z,41.88
2023-04-04T08:31:11.302Z,28.40
2023-04-04T08:34:17.003Z,32.98
2023-04-04T08:37:23.052Z,36.58
2023-04-04T08:40:39.248Z,38.13
2023-04-04T08:43:57.088Z,30.90
2023-04-04T08:47:03.502Z,31.15
2023-04-04T08:50:10.593Z,23.38
2023-04-04T08:53:16.704Z,25.57
2023-04-04T08:56:23.193Z,38.63
2023-04-04T08:59:30.732Z,31.87
2023-04-04T09:02:42.734Z,50.48
2023-04-04T09:05:48.463Z,50.45
2023-04-04T09:08:54.667Z,39.75
2023-04-04T09:12:00.152Z,39.18
2023-04-04T09:15:06.950Z,51.33
2023-04-04T09:18:12.457Z,56.48
2023-04-04T09:21:26.355Z,44.13
2023-04-04T09:24:31.924Z,27.80
2023-04-04T09:27:36.955Z,42.73
2023-04-04T09:30:44.384Z,28.92
2023-04-04T09:33:53.130Z,31.12
2023-04-04T09:37:00.394Z,22.52
2023-04-04T09:40:06.333Z,21.62
2023-04-04T09:43:23.526Z,20.12
2023-04-04T09:46:28.860Z,16.37
2023-04-04T09:49:38.883Z,15.13
2023-04-04T09:52:51.908Z,24.87
2023-04-04T09:55:58.701Z,13.62
2023-04-04T09:59:05.206Z,15.40
2023-04-04T10:02:17.025Z,16.25
2023-04-04T10:05:27.123Z,14.83
2023-04-04T10:08:35.193Z,20.10
2023-04-04T10:11:46.169Z,15.35
2023-04-04T10:14:52.523Z,19.37
2023-04-04T10:18:02.105Z,18.25
2023-04-04T10:24:18.432Z,16.93
2023-04-04T10:27:24.262Z,14.73
2023-04-04T10:30:29.485Z,19.32
2023-04-04T10:34:12.672Z,19.92
2023-04-04T10:37:25.698Z,21.40
2023-04-04T10:40:33.375Z,14.38
2023-04-04T10:43:40.622Z,15.72
2023-04-04T10:46:46.248Z,20.95
2023-04-04T10:49:52.948Z,14.78
2023-04-04T10:52:59.583Z,17.52
2023-04-04T10:56:05.008Z,17.20
2023-04-04T10:59:30.579Z,14.30
2023-04-04T11:03:00.069Z,16.77
2023-04-04T11:06:09.250Z,16.73
2023-04-04T11:09:15.830Z,15.28
2023-04-04T11:12:26.361Z,14.80
2023-04-04T11:15:35.247Z,14.00
2023-04-04T11:19:00.810Z,13.62
2023-04-04T11:22:06.489Z,13.40
2023-04-04T11:25:17.930Z,13.08
2023-04-04T11:28:28.624Z,12.03
2023-04-04T11:31:41.918Z,14.63
2023-04-04T11:34:51.269Z,11.35
2023-04-04T11:38:10.164Z,10.72
2023-04-04T11:41:17.360Z,11.00
2023-04-04T11:44:24.469Z,9.08
2023-04-04T11:47:30.161Z,10.58
2023-04-04T11:50:35.458Z,12.98
2023-04-04T11:53:41.139Z,14.78
2023-04-04T11:56:54.394Z,12.07
2023-04-04T12:00:02.022Z,13.45
2023-04-04T12:03:08.275Z,19.02
2023-04-04T12:06:14.786Z,10.35
2023-04-04T12:09:22.268Z,14.78
2023-04-04T12:12:29.341Z,14.90
2023-04-04T12:15:38.106Z,12.43
2023-04-04T12:18:44.722Z,13.70
2023-04-04T12:21:52.755Z,11.48
2023-04-04T12:25:01.168Z,11.78
2023-04-04T12:28:07.017Z,12.68
2023-04-04T12:31:13.340Z,14.43
2023-04-04T12:34:18.331Z,12.47
2023-04-04T12:37:25.951Z,12.55
2023-04-04T12:40:32.454Z,11.55
2023-04-04T12:43:40.859Z,11.03
2023-04-04T12:46:53.898Z,10.40
2023-04-04T12:50:04.061Z,11.75
2023-04-04T12:53:27.434Z,17.07
2023-04-04T12:56:18.370Z,13.15
2023-04-04T12:59:24.011Z,11.00
2023-04-04T13:02:32.105Z,11.38
2023-04-04T13:05:41.979Z,9.10
2023-04-04T13:08:49.985Z,13.05
2023-04-04T13:12:16.123Z,17.60
2023-04-04T13:15:21.780Z,13.00
2023-04-04T13:18:36.987Z,19.55
2023-04-04T13:21:42.409Z,12.20
2023-04-04T13:24:47.813Z,11.05
2023-04-04T13:27:54.288Z,14.95
2023-04-04T13:30:59.673Z,11.30
2023-04-04T13:34:05.749Z,13.45
2023-04-04T13:37:11.275Z,10.53
2023-04-04T13:40:17.631Z,9.63
2023-04-04T13:43:22.857Z,10.03
2023-04-04T13:46:28.173Z,12.40
2023-04-04T13:49:33.646Z,11.53
2023-04-04T13:52:39.346Z,10.03
2023-04-04T13:56:07.657Z,8.05
2023-04-04T13:58:56.604Z,10.55
2023-04-04T14:02:03.754Z,7.90
2023-04-04T14:05:09.396Z,8.65
2023-04-04T14:08:14.953Z,7.97
2023-04-04T14:11:21.396Z,7.50
2023-04-04T14:14:26.527Z,8.40
2023-04-04T14:17:32.829Z,6.97
2023-04-04T14:20:38.873Z,7.70
2023-04-04T14:23:45.983Z,8.08
2023-04-04T14:26:52.261Z,7.50
2023-04-04T14:29:58.458Z,7.70
2023-04-04T14:33:04.925Z,11.18
2023-04-04T14:36:11.140Z,8.08
2023-04-04T14:39:17.544Z,7.92
2023-04-04T14:42:23.584Z,7.20
2023-04-04T14:45:30.991Z,7.42
2023-04-04T14:48:36.864Z,9.90
2023-04-04T14:51:43.502Z,8.00
2023-04-04T14:54:49.576Z,7.83
2023-04-04T15:01:03.720Z,9.48
2023-04-04T15:04:10.042Z,6.83
2023-04-04T15:07:15.654Z,8.75
2023-04-04T15:10:22.243Z,8.53
2023-04-04T15:13:27.585Z,7.60
2023-04-04T15:16:36.731Z,6.05
2023-04-04T15:19:43.456Z,13.58
2023-04-04T15:22:48.745Z,8.15
2023-04-04T15:25:55.086Z,6.47
2023-04-04T15:29:01.793Z,7.97
2023-04-04T15:32:08.326Z,9.83
2023-04-04T15:35:14.182Z,8.88
2023-04-04T15:38:20.404Z,9.55
2023-04-04T15:41:26.505Z,7.72
2023-04-04T15:44:31.575Z,8.38
2023-04-04T15:47:36.788Z,9.65
2023-04-04T15:50:42.483Z,9.33
2023-04-04T15:53:42.439Z,11.05
2023-04-04T15:56:47.848Z,8.77
2023-04-04T15:59:53.766Z,14.20
2023-04-04T16:03:02.041Z,11.12
2023-04-04T16:06:09.212Z,10.15
2023-04-04T16:09:16.780Z,10.88
2023-04-04T16:12:22.226Z,11.08
2023-04-04T16:15:28.459Z,10.68
2023-04-04T16:18:35.012Z,10.35
2023-04-04T16:21:40.294Z,11.85
2023-04-04T16:24:46.364Z,11.50
2023-04-04T16:27:53.712Z,10.55
2023-04-04T16:31:01.118Z,9.48
2023-04-04T16:34:06.723Z,10.75
2023-04-04T16:37:13.374Z,16.67
2023-04-04T16:40:20.783Z,11.50
2023-04-04T16:43:25.689Z,10.23
2023-04-04T16:46:33.024Z,9.15
2023-04-04T16:49:39.353Z,12.80
2023-04-04T16:52:46.525Z,11.68
2023-04-04T16:55:52.699Z,9.55
2023-04-04T16:59:00.671Z,11.80
2023-04-04T17:02:06.602Z,9.83
2023-04-04T17:05:12.824Z,15.63
2023-04-04T17:08:18.441Z,12.98
2023-04-04T17:11:24.398Z,15.45
2023-04-04T17:14:30.261Z,11.12
2023-04-04T17:17:36.237Z,11.38
2023-04-04T17:20:45.067Z,11.12
2023-04-04T17:23:50.037Z,12.03
2023-04-04T17:26:56.247Z,11.83
2023-04-04T17:30:01.215Z,12.30
2023-04-04T17:33:08.415Z,12.43
2023-04-04T17:36:14.265Z,13.72
2023-04-04T17:39:19.968Z,13.62
2023-04-04T17:42:25.042Z,12.10
2023-04-04T17:45:30.699Z,12.50
2023-04-04T17:48:38.048Z,13.35
2023-04-04T17:51:44.502Z,14.80
2023-04-04T17:54:50.281Z,11.15
2023-04-04T17:57:56.525Z,11.73
2023-04-04T18:01:04.523Z,12.13
2023-04-04T18:04:11.719Z,14.58
2023-04-04T18:07:17.231Z,12.45
2023-04-04T18:10:24.841Z,14.10
2023-04-04T18:13:30.965Z,13.90
2023-04-04T18:16:40.083Z,15.00
2023-04-04T18:19:45.224Z,14.07
2023-04-04T18:22:50.128Z,13.62
2023-04-04T18:25:55.360Z,14.53
2023-04-04T18:29:00.794Z,14.05
2023-04-04T18:32:06.104Z,16.82
2023-04-04T18:35:11.771Z,14.98
2023-04-04T18:38:18.002Z,16.45
2023-04-04T18:41:24.298Z,15.15
2023-04-04T18:44:30.018Z,14.85
2023-04-04T18:47:35.773Z,13.85
2023-04-04T18:50:42.398Z,14.18
2023-04-04T18:53:50.855Z,17.32
2023-04-04T18:56:56.137Z,13.90
2023-04-04T19:00:01.973Z,15.38
2023-04-04T19:03:09.944Z,20.75
2023-04-04T19:06:19.927Z,15.30
2023-04-04T19:09:25.677Z,21.93
2023-04-04T19:12:32.094Z,16.82
2023-04-04T19:15:37.393Z,14.87
2023-04-04T19:18:42.420Z,19.48
2023-04-04T19:21:47.670Z,13.78
2023-04-04T19:24:53.340Z,20.95
2023-04-04T19:27:59.207Z,17.00
2023-04-04T19:31:05.441Z,18.73
2023-04-04T19:34:13.867Z,15.60
2023-04-04T19:37:21.395Z,17.57
2023-04-04T19:40:29.628Z,17.00
2023-04-04T19:43:36.201Z,16.10
2023-04-04T19:46:43.440Z,18.77
2023-04-04T19:49:51.416Z,20.40
2023-04-04T19:52:57.798Z,20.60
2023-04-04T19:56:04.541Z,19.27
2023-04-04T19:59:15.674Z,20.48
2023-04-04T20:05:47.393Z,21.50
2023-04-04T20:08:59.884Z,23.60
2023-04-04T20:12:04.848Z,17.62
2023-04-04T20:15:13.736Z,19.17
2023-04-04T20:18:19.017Z,20.40
2023-04-04T20:21:33.713Z,19.82
2023-04-04T20:24:40.168Z,27.48
2023-04-04T20:27:45.987Z,22.50
2023-04-04T20:30:52.730Z,19.37
2023-04-04T20:33:59.205Z,20.08
2023-04-04T20:37:05.283Z,21.30
2023-04-04T20:40:24.346Z,17.07
2023-04-04T20:43:30.418Z,20.75
2023-04-04T20:46:38.880Z,20.27
2023-04-04T20:49:45.055Z,19.05
2023-04-04T20:52:50.528Z,21.27
2023-04-04T20:55:56.926Z,21.77
2023-04-04T20:59:02.725Z,19.82
2023-04-04T21:02:08.558Z,19.75
2023-04-04T21:05:14.914Z,18.98
2023-04-04T21:08:40.104Z,21.10
2023-04-04T21:11:46.490Z,23.22
2023-04-04T21:14:51.563Z,18.77
2023-04-04T21:17:58.005Z,20.15
2023-04-04T21:21:08.984Z,19.52
2023-04-04T21:24:19.455Z,17.25
2023-04-04T21:27:27.352Z,19.75
2023-04-04T21:30:51.833Z,21.50
2023-04-04T21:34:00.565Z,18.25
2023-04-04T21:37:09.280Z,21.25
2023-04-04T21:40:14.499Z,23.07
2023-04-04T21:43:19.849Z,19.90
2023-04-04T21:46:26.697Z,21.55
2023-04-04T21:49:32.741Z,24.18
2023-04-04T21:52:38.127Z,23.45
2023-04-04T21:55:43.919Z,23.55
2023-04-04T21:58:50.158Z,22.60
2023-04-04T22:01:55.191Z,20.10
2023-04-04T22:05:02.815Z,21.82
2023-04-04T22:08:02.003Z,21.57
2023-04-04T22:11:10.753Z,17.70
2023-04-04T22:14:16.143Z,19.30
2023-04-04T22:17:24.727Z,19.70
2023-04-04T22:20:30.413Z,22.80
2023-04-04T22:23:37.769Z,19.12
2023-04-04T22:26:44.068Z,19.32
2023-04-04T22:29:50.425Z,23.25
2023-04-04T22:32:56.594Z,20.85
2023-04-04T22:36:01.412Z,21.35
2023-04-04T22:39:08.479Z,18.67
2023-04-04T22:42:14.672Z,25.02
2023-04-04T22:45:20.863Z,22.62
2023-04-04T22:48:29.469Z,24.98
2023-04-04T22:51:35.248Z,20.25
2023-04-04T22:54:42.375Z,23.65
2023-04-04T22:57:48.777Z,22.73
2023-04-04T23:00:54.733Z,25.17
2023-04-04T23:04:00.531Z,24.07
2023-04-04T23:07:05.420Z,26.73
2023-04-04T23:13:35.504Z,27.55
2023-04-04T23:16:42.053Z,24.23
2023-04-04T23:19:49.028Z,31.85
2023-04-04T23:22:55.353Z,25.30
2023-04-04T23:26:01.717Z,27.20
2023-04-04T23:29:08.783Z,27.32
2023-04-04T23:32:14.107Z,29.60
2023-04-04T23:35:19.388Z,28.90
2023-04-04T23:38:25.328Z,29.27
2023-04-04T23:41:31.038Z,33.53
2023-04-04T23:44:37.405Z,30.10
2023-04-04T23:47:42.855Z,28.67
2023-04-04T23:50:47.634Z,32.78
2023-04-04T23:53:53.743Z,33.00
2023-04-04T23:57:00.248Z,28.83
